createdAt,value
2023-04-01T00:00:49.260Z,5.42
2023-04-01T00:01:52.134Z,9.96
2023-04-01T00:02:54.957Z,8.22
2023-04-01T00:03:57.936Z,7.12
2023-04-01T00:05:00.755Z,7.04
2023-04-01T00:06:04.037Z,8.92
2023-04-01T00:07:06.915Z,9.41
2023-04-01T00:08:09.906Z,10.12
2023-04-01T00:09:14.411Z,9.80
2023-04-01T00:10:17.297Z,10.07
2023-04-01T00:11:20.822Z,10.39
2023-04-01T00:12:23.647Z,11.78
2023-04-01T00:13:26.529Z,11.35
2023-04-01T00:14:32.361Z,10.69
2023-04-01T00:15:35.241Z,11.81
2023-04-01T00:16:39.755Z,11.62
2023-04-01T00:17:42.761Z,12.07
2023-04-01T00:18:45.400Z,9.72
2023-04-01T00:19:47.895Z,10.73
2023-04-01T00:20:50.430Z,13.76
2023-04-01T00:21:53.327Z,10.02
2023-04-01T00:22:55.873Z,8.48
2023-04-01T00:23:58.648Z,10.19
2023-04-01T00:25:01.209Z,10.49
2023-04-01T00:26:03.896Z,10.85
2023-04-01T00:27:06.860Z,12.81
2023-04-01T00:28:09.435Z,7.38
2023-04-01T00:29:12.199Z,9.55
2023-04-01T00:30:14.872Z,7.12
2023-04-01T00:31:17.645Z,7.89
2023-04-01T00:32:20.414Z,7.02
2023-04-01T00:33:23.088Z,8.78
2023-04-01T00:34:25.867Z,7.38
2023-04-01T00:35:28.427Z,9.05
2023-04-01T00:36:31.147Z,7.32
2023-04-01T00:37:33.974Z,7.47
2023-04-01T00:38:36.540Z,8.13
2023-04-01T00:39:39.224Z,9.79
2023-04-01T00:40:41.874Z,7.14
2023-04-01T00:41:44.553Z,8.03
2023-04-01T00:42:47.221Z,7.70
2023-04-01T00:43:49.995Z,6.97
2023-04-01T00:44:52.970Z,9.15
2023-04-01T00:45:55.536Z,7.72
2023-04-01T00:46:58.632Z,9.95
2023-04-01T00:48:01.453Z,10.88
2023-04-01T00:49:04.056Z,8.68
2023-04-01T00:50:06.826Z,9.80
2023-04-01T00:51:09.610Z,9.06
2023-04-01T00:52:12.377Z,11.48
2023-04-01T00:53:15.056Z,8.30
2023-04-01T00:54:17.617Z,7.80
2023-04-01T00:55:20.491Z,8.94
2023-04-01T00:56:23.482Z,8.37
2023-04-01T00:57:26.276Z,7.22
2023-04-01T00:58:29.341Z,8.68
2023-04-01T00:59:32.502Z,9.07
2023-04-01T01:00:35.390Z,7.22
2023-04-01T01:01:38.244Z,11.15
2023-04-01T01:02:41.356Z,9.51
2023-04-01T01:03:44.716Z,9.68
2023-04-01T01:04:47.697Z,9.35
2023-04-01T01:05:50.805Z,9.75
2023-04-01T01:06:53.875Z,10.78
2023-04-01T01:07:56.829Z,12.75
2023-04-01T01:08:59.802Z,11.82
2023-04-01T01:10:02.674Z,9.73
2023-04-01T01:11:05.666Z,9.95
2023-04-01T01:12:08.424Z,10.95
2023-04-01T01:13:11.312Z,9.73
2023-04-01T01:14:14.293Z,12.65
2023-04-01T01:15:17.169Z,19.60
2023-04-01T01:16:20.068Z,16.26
2023-04-01T01:17:22.981Z,19.11
2023-04-01T01:18:25.567Z,16.27
2023-04-01T01:19:29.084Z,16.83
2023-04-01T01:20:31.977Z,17.98
2023-04-01T01:21:34.913Z,17.54
2023-04-01T01:22:37.889Z,19.80
2023-04-01T01:23:40.763Z,21.98
2023-04-01T01:24:43.533Z,19.00
2023-04-01T01:25:46.204Z,18.32
2023-04-01T01:26:48.883Z,21.34
2023-04-01T01:27:51.650Z,18.37
2023-04-01T01:28:54.620Z,19.98
2023-04-01T01:29:57.701Z,17.98
2023-04-01T01:31:00.610Z,15.84
2023-04-01T01:32:03.248Z,16.57
2023-04-01T01:33:05.992Z,16.29
2023-04-01T01:34:08.701Z,13.54
2023-04-01T01:35:11.462Z,15.21
2023-04-01T01:36:14.430Z,10.46
2023-04-01T01:37:17.124Z,15.37
2023-04-01T01:38:20.085Z,13.72
2023-04-01T01:39:22.657Z,13.10
2023-04-01T01:40:25.524Z,15.10
2023-04-01T01:41:28.412Z,15.78
2023-04-01T01:42:31.376Z,18.65
2023-04-01T01:43:34.475Z,17.30
2023-04-01T01:44:37.452Z,18.00
2023-04-01T01:45:40.652Z,17.28
2023-04-01T01:46:43.811Z,15.73
2023-04-01T01:47:46.717Z,13.53
2023-04-01T01:48:49.649Z,15.38
2023-04-01T01:49:52.620Z,13.95
2023-04-01T01:50:55.709Z,12.18
2023-04-01T01:51:58.577Z,12.95
2023-04-01T01:53:01.556Z,12.10
2023-04-01T01:54:04.430Z,13.53
2023-04-01T01:55:07.408Z,12.41
2023-04-01T01:56:10.693Z,14.46
2023-04-01T01:57:13.541Z,12.75
2023-04-01T01:58:16.442Z,13.22
2023-04-01T01:59:19.119Z,13.85
2023-04-01T02:00:21.787Z,13.53
2023-04-01T02:01:24.722Z,14.32
2023-04-01T02:02:27.767Z,14.83
2023-04-01T02:03:30.613Z,12.60
2023-04-01T02:04:33.514Z,14.12
2023-04-01T02:05:36.158Z,15.83
2023-04-01T02:06:39.133Z,13.99
2023-04-01T02:07:41.899Z,14.97
2023-04-01T02:08:44.796Z,17.26
2023-04-01T02:09:47.653Z,12.82
2023-04-01T02:10:50.425Z,16.27
2023-04-01T02:11:53.410Z,13.82
2023-04-01T02:12:56.072Z,13.07
2023-04-01T02:13:59.049Z,16.69
2023-04-01T02:15:01.924Z,16.69
2023-04-01T02:16:05.135Z,14.64
2023-04-01T02:17:08.296Z,14.09
2023-04-01T02:18:11.185Z,11.31
2023-04-01T02:19:14.154Z,13.12
2023-04-01T02:20:17.036Z,13.92
2023-04-01T02:21:19.995Z,12.86
2023-04-01T02:22:23.069Z,16.47
2023-04-01T02:23:25.738Z,17.74
2023-04-01T02:24:28.621Z,18.08
2023-04-01T02:25:31.813Z,19.78
2023-04-01T02:26:34.881Z,17.54
2023-04-01T02:27:38.264Z,21.11
2023-04-01T02:28:40.928Z,16.46
2023-04-01T02:29:43.397Z,15.70
2023-04-01T02:30:46.172Z,16.34
2023-04-01T02:31:49.144Z,16.08
2023-04-01T02:32:52.169Z,18.84
2023-04-01T02:33:54.894Z,20.55
2023-04-01T02:34:57.603Z,22.27
2023-04-01T02:36:00.194Z,20.83
2023-04-01T02:37:03.212Z,20.66
2023-04-01T02:38:09.465Z,20.30
2023-04-01T02:39:12.133Z,19.69
2023-04-01T02:40:14.836Z,17.99
2023-04-01T02:41:17.408Z,17.95
2023-04-01T02:42:19.952Z,19.82
2023-04-01T02:43:22.613Z,17.27
2023-04-01T02:44:25.278Z,22.05
2023-04-01T02:45:27.944Z,15.99
2023-04-01T02:46:30.664Z,17.63
2023-04-01T02:47:33.512Z,20.96
2023-04-01T02:48:36.374Z,18.92
2023-04-01T02:49:39.044Z,22.24
2023-04-01T02:50:41.610Z,26.07
2023-04-01T02:51:44.279Z,17.80
2023-04-01T02:52:46.957Z,22.08
2023-04-01T02:53:50.133Z,18.82
2023-04-01T02:54:52.698Z,12.71
2023-04-01T02:55:55.386Z,18.36
2023-04-01T02:56:57.971Z,15.33
2023-04-01T02:58:00.618Z,16.57
2023-04-01T02:59:03.786Z,15.61
2023-04-01T03:00:06.461Z,17.98
2023-04-01T03:01:09.434Z,14.94
2023-04-01T03:02:12.456Z,20.12
2023-04-01T03:03:15.360Z,21.19
2023-04-01T03:04:18.607Z,22.67
2023-04-01T03:05:21.556Z,20.32
2023-04-01T03:06:30.139Z,20.85
2023-04-01T03:07:32.307Z,20.14
2023-04-01T03:08:37.034Z,22.64
2023-04-01T03:09:43.172Z,25.16
2023-04-01T03:10:54.679Z,22.94
2023-04-01T03:11:58.673Z,18.14
2023-04-01T03:13:01.552Z,20.54
2023-04-01T03:14:04.214Z,18.95
2023-04-01T03:15:10.855Z,22.17
2023-04-01T03:16:11.463Z,16.69
2023-04-01T03:17:14.062Z,22.08
2023-04-01T03:18:16.728Z,20.84
2023-04-01T03:19:19.401Z,18.96
2023-04-01T03:20:22.168Z,22.91
2023-04-01T03:21:24.840Z,24.38
2023-04-01T03:22:27.512Z,19.84
2023-04-01T03:23:30.383Z,20.22
2023-04-01T03:24:33.050Z,21.96
2023-04-01T03:25:35.825Z,15.46
2023-04-01T03:26:38.499Z,14.46
2023-04-01T03:27:41.278Z,19.60
2023-04-01T03:28:43.839Z,17.62
2023-04-01T03:29:46.327Z,17.68
2023-04-01T03:30:49.215Z,18.40
2023-04-01T03:31:51.842Z,16.28
2023-04-01T03:32:54.648Z,15.64
2023-04-01T03:33:57.288Z,21.17
2023-04-01T03:34:59.950Z,23.42
2023-04-01T03:36:02.671Z,20.69
2023-04-01T03:37:05.191Z,17.30
2023-04-01T03:38:08.075Z,18.52
2023-04-01T03:39:11.042Z,19.89
2023-04-01T03:40:13.812Z,19.28
2023-04-01T03:41:17.202Z,20.27
2023-04-01T03:42:20.077Z,15.72
2023-04-01T03:43:23.156Z,20.11
2023-04-01T03:44:26.042Z,21.15
2023-04-01T03:45:28.819Z,16.48
2023-04-01T03:46:31.517Z,16.47
2023-04-01T03:47:34.484Z,18.38
2023-04-01T03:48:37.319Z,18.92
2023-04-01T03:49:40.209Z,19.60
2023-04-01T03:50:43.512Z,22.42
2023-04-01T03:51:46.466Z,18.63
2023-04-01T03:52:49.653Z,15.28
2023-04-01T03:53:52.416Z,17.68
2023-04-01T03:54:55.294Z,18.94
2023-04-01T03:55:58.164Z,17.58
2023-04-01T03:57:01.529Z,15.70
2023-04-01T03:58:04.330Z,14.58
2023-04-01T03:59:07.207Z,13.79
2023-04-01T04:00:10.084Z,13.02
2023-04-01T04:01:12.853Z,12.87
2023-04-01T04:02:16.029Z,15.19
2023-04-01T04:03:19.022Z,11.73
2023-04-01T04:04:21.672Z,15.96
2023-04-01T04:05:24.653Z,14.63
2023-04-01T04:06:27.530Z,16.20
2023-04-01T04:07:30.205Z,13.52
2023-04-01T04:08:33.073Z,15.45
2023-04-01T04:09:35.946Z,14.83
2023-04-01T04:10:38.827Z,13.58
2023-04-01T04:11:41.491Z,14.79
2023-04-01T04:12:44.161Z,16.27
2023-04-01T04:13:47.041Z,17.49
2023-04-01T04:14:51.205Z,15.15
2023-04-01T04:15:53.924Z,15.88
2023-04-01T04:16:56.584Z,15.99
2023-04-01T04:17:59.611Z,16.52
2023-04-01T04:19:02.451Z,15.62
2023-04-01T04:20:05.214Z,16.42
2023-04-01T04:21:07.975Z,15.45
2023-04-01T04:22:10.646Z,12.74
2023-04-01T04:23:13.220Z,13.07
2023-04-01T04:24:16.088Z,14.20
2023-04-01T04:25:18.859Z,10.82
2023-04-01T04:26:21.543Z,11.16
2023-04-01T04:27:24.206Z,10.40
2023-04-01T04:28:26.971Z,13.58
2023-04-01T04:29:29.847Z,9.90
2023-04-01T04:30:32.730Z,11.43
2023-04-01T04:31:35.743Z,13.26
2023-04-01T04:32:38.496Z,11.29
2023-04-01T04:33:41.341Z,10.68
2023-04-01T04:34:44.946Z,10.48
2023-04-01T04:35:47.605Z,11.56
2023-04-01T04:36:50.685Z,11.50
2023-04-01T04:37:53.467Z,13.64
2023-04-01T04:38:56.643Z,11.02
2023-04-01T04:39:59.305Z,11.56
2023-04-01T04:41:02.188Z,13.21
2023-04-01T04:42:05.059Z,11.98
2023-04-01T04:43:07.935Z,10.00
2023-04-01T04:44:11.123Z,11.37
2023-04-01T04:45:13.798Z,13.28
2023-04-01T04:46:16.484Z,11.80
2023-04-01T04:47:19.373Z,14.22
2023-04-01T04:48:22.208Z,13.64
2023-04-01T04:49:25.959Z,14.70
2023-04-01T04:50:28.570Z,14.74
2023-04-01T04:51:31.444Z,12.94
2023-04-01T04:52:34.314Z,13.43
2023-04-01T04:53:37.293Z,14.10
2023-04-01T04:54:40.374Z,14.01
2023-04-01T04:55:43.043Z,14.90
2023-04-01T04:56:46.125Z,16.08
2023-04-01T04:57:48.995Z,19.11
2023-04-01T04:58:51.769Z,17.49
2023-04-01T04:59:54.441Z,15.90
2023-04-01T05:00:57.091Z,19.02
2023-04-01T05:01:59.880Z,15.45
2023-04-01T05:03:02.691Z,15.01
2023-04-01T05:04:05.322Z,14.72
2023-04-01T05:05:08.094Z,17.01
2023-04-01T05:06:10.785Z,15.54
2023-04-01T05:07:14.054Z,16.05
2023-04-01T05:08:22.449Z,16.26
2023-04-01T05:09:25.235Z,15.16
2023-04-01T05:10:28.236Z,15.08
2023-04-01T05:11:30.784Z,16.78
2023-04-01T05:12:33.548Z,16.13
2023-04-01T05:13:36.325Z,10.13
2023-04-01T05:14:39.190Z,14.95
2023-04-01T05:15:43.612Z,15.64
2023-04-01T05:16:46.209Z,13.63
2023-04-01T05:17:48.881Z,13.60
2023-04-01T05:18:51.826Z,12.58
2023-04-01T05:19:54.483Z,14.84
2023-04-01T05:20:57.158Z,13.43
2023-04-01T05:21:59.823Z,14.52
2023-04-01T05:23:02.725Z,12.87
2023-04-01T05:24:05.470Z,9.81
2023-04-01T05:25:08.259Z,12.43
2023-04-01T05:26:11.117Z,13.12
2023-04-01T05:27:13.993Z,12.98
2023-04-01T05:28:16.971Z,11.95
2023-04-01T05:29:19.955Z,12.86
2023-04-01T05:30:22.924Z,10.07
2023-04-01T05:31:25.679Z,8.44
2023-04-01T05:32:28.489Z,13.06
2023-04-01T05:33:31.236Z,13.99
2023-04-01T05:34:33.909Z,12.05
2023-04-01T05:35:36.785Z,13.78
2023-04-01T05:36:39.561Z,12.35
2023-04-01T05:37:42.331Z,13.20
2023-04-01T05:38:45.202Z,11.53
2023-04-01T05:39:47.771Z,11.39
2023-04-01T05:40:50.463Z,9.62
2023-04-01T05:41:53.258Z,13.83
2023-04-01T05:42:58.751Z,15.40
2023-04-01T05:44:01.741Z,14.32
2023-04-01T05:45:04.393Z,11.23
2023-04-01T05:46:07.030Z,12.88
2023-04-01T05:47:11.181Z,9.64
2023-04-01T05:48:13.940Z,10.35
2023-04-01T05:49:17.029Z,10.76
2023-04-01T05:50:19.898Z,8.53
2023-04-01T05:51:22.774Z,11.76
2023-04-01T05:52:25.951Z,8.30
2023-04-01T05:53:28.530Z,9.50
2023-04-01T05:54:31.090Z,10.10
2023-04-01T05:55:33.925Z,9.15
2023-04-01T05:56:36.743Z,11.58
2023-04-01T05:57:39.836Z,12.48
2023-04-01T05:58:42.384Z,10.02
2023-04-01T05:59:45.051Z,13.04
2023-04-01T06:00:48.002Z,12.71
2023-04-01T06:01:50.599Z,12.85
2023-04-01T06:02:53.882Z,13.81
2023-04-01T06:03:56.586Z,10.47
2023-04-01T06:04:59.627Z,13.22
2023-04-01T06:06:02.295Z,9.97
2023-04-01T06:07:04.971Z,9.95
2023-04-01T06:08:07.745Z,12.80
2023-04-01T06:09:10.415Z,11.54
2023-04-01T06:10:14.793Z,8.75
2023-04-01T06:11:17.394Z,10.94
2023-04-01T06:12:20.059Z,11.61
2023-04-01T06:13:23.243Z,9.36
2023-04-01T06:14:25.907Z,11.10
2023-04-01T06:15:28.883Z,11.61
2023-04-01T06:16:31.699Z,12.23
2023-04-01T06:17:35.968Z,9.48
2023-04-01T06:18:38.634Z,6.99
2023-04-01T06:19:41.342Z,6.62
2023-04-01T06:20:44.027Z,8.72
2023-04-01T06:21:46.760Z,9.97
2023-04-01T06:22:49.529Z,7.58
2023-04-01T06:23:52.291Z,8.29
2023-04-01T06:24:54.964Z,8.36
2023-04-01T06:25:57.734Z,9.79
2023-04-01T06:27:00.406Z,7.17
2023-04-01T06:28:03.212Z,7.53
2023-04-01T06:29:05.770Z,8.35
2023-04-01T06:30:08.445Z,7.54
2023-04-01T06:31:11.274Z,10.27
2023-04-01T06:32:13.980Z,10.30
2023-04-01T06:33:16.695Z,11.28
2023-04-01T06:34:19.609Z,13.20
2023-04-01T06:35:27.449Z,9.76
2023-04-01T06:36:30.034Z,9.41
2023-04-01T06:37:32.659Z,8.82
2023-04-01T06:38:35.312Z,9.15
2023-04-01T06:39:38.185Z,8.46
2023-04-01T06:40:40.964Z,9.95
2023-04-01T06:41:43.730Z,12.92
2023-04-01T06:42:46.392Z,9.32
2023-04-01T06:43:48.962Z,10.63
2023-04-01T06:44:51.945Z,10.71
2023-04-01T06:45:54.733Z,10.25
2023-04-01T06:46:58.607Z,10.82
2023-04-01T06:48:01.311Z,10.88
2023-04-01T06:49:03.952Z,10.23
2023-04-01T06:50:06.518Z,10.98
2023-04-01T06:51:09.105Z,8.95
2023-04-01T06:52:11.868Z,11.61
2023-04-01T06:53:14.733Z,9.11
2023-04-01T06:54:17.408Z,9.82
2023-04-01T06:55:21.777Z,12.31
2023-04-01T06:56:24.084Z,11.60
2023-04-01T06:57:26.718Z,11.82
2023-04-01T06:58:29.627Z,13.00
2023-04-01T06:59:32.290Z,10.98
2023-04-01T07:00:34.960Z,10.78
2023-04-01T07:01:37.873Z,9.48
2023-04-01T07:02:40.745Z,12.27
2023-04-01T07:03:43.581Z,11.71
2023-04-01T07:04:46.439Z,9.31
2023-04-01T07:05:49.541Z,9.98
2023-04-01T07:06:52.406Z,10.41
2023-04-01T07:07:54.993Z,11.12
2023-04-01T07:08:57.850Z,12.94
2023-04-01T07:10:00.516Z,9.25
2023-04-01T07:11:03.614Z,9.49
2023-04-01T07:12:06.371Z,9.56
2023-04-01T07:13:09.149Z,7.95
2023-04-01T07:14:11.913Z,11.43
2023-04-01T07:15:15.812Z,11.46
2023-04-01T07:16:18.700Z,11.06
2023-04-01T07:17:21.461Z,9.75
2023-04-01T07:18:24.028Z,11.30
2023-04-01T07:19:26.591Z,12.68
2023-04-01T07:20:29.161Z,16.29
2023-04-01T07:21:33.461Z,13.78
2023-04-01T07:22:36.457Z,9.58
2023-04-01T07:23:39.222Z,10.29
2023-04-01T07:24:41.990Z,13.11
2023-04-01T07:25:45.068Z,12.13
2023-04-01T07:26:48.242Z,10.58
2023-04-01T07:27:51.019Z,10.26
2023-04-01T07:28:53.706Z,10.38
2023-04-01T07:29:56.369Z,13.94
2023-04-01T07:30:59.163Z,16.10
2023-04-01T07:32:02.528Z,10.46
2023-04-01T07:33:05.741Z,7.85
2023-04-01T07:34:08.576Z,9.90
2023-04-01T07:35:11.453Z,9.63
2023-04-01T07:36:14.164Z,10.95
2023-04-01T07:37:17.518Z,12.43
2023-04-01T07:38:20.431Z,9.82
2023-04-01T07:39:23.262Z,11.33
2023-04-01T07:40:25.932Z,10.61
2023-04-01T07:41:28.808Z,10.66
2023-04-01T07:42:31.988Z,10.24
2023-04-01T07:43:34.770Z,12.42
2023-04-01T07:44:37.636Z,12.28
2023-04-01T07:45:40.613Z,11.18
2023-04-01T07:46:43.719Z,10.04
2023-04-01T07:47:46.779Z,8.40
2023-04-01T07:48:49.439Z,10.36
2023-04-01T07:49:52.127Z,10.85
2023-04-01T07:50:54.892Z,10.72
2023-04-01T07:51:57.553Z,10.40
2023-04-01T07:53:00.342Z,11.62
2023-04-01T07:54:03.306Z,8.33
2023-04-01T07:55:06.191Z,7.52
2023-04-01T07:56:10.194Z,10.74
2023-04-01T07:57:13.385Z,10.23
2023-04-01T07:58:16.654Z,8.89
2023-04-01T07:59:19.620Z,9.07
2023-04-01T08:00:22.393Z,10.10
2023-04-01T08:01:25.074Z,8.79
2023-04-01T08:02:27.823Z,11.23
2023-04-01T08:03:30.594Z,11.10
2023-04-01T08:04:33.397Z,9.31
2023-04-01T08:05:36.286Z,9.06
2023-04-01T08:06:39.131Z,8.77
2023-04-01T08:07:42.016Z,11.27
2023-04-01T08:08:45.185Z,12.33
2023-04-01T08:09:47.956Z,8.76
2023-04-01T08:10:50.828Z,9.88
2023-04-01T08:11:53.707Z,12.07
2023-04-01T08:12:56.582Z,11.03
2023-04-01T08:13:59.451Z,9.51
2023-04-01T08:15:02.234Z,13.21
2023-04-01T08:16:05.463Z,14.73
2023-04-01T08:17:08.282Z,11.11
2023-04-01T08:18:11.154Z,12.62
2023-04-01T08:19:14.030Z,15.52
2023-04-01T08:20:16.905Z,13.65
2023-04-01T08:21:19.776Z,7.66
2023-04-01T08:22:22.676Z,8.32
2023-04-01T08:23:25.541Z,9.82
2023-04-01T08:24:37.137Z,12.02
2023-04-01T08:25:33.379Z,9.75
2023-04-01T08:26:36.409Z,10.12
2023-04-01T08:27:39.310Z,10.88
2023-04-01T08:28:43.078Z,11.21
2023-04-01T08:29:46.356Z,10.47
2023-04-01T08:30:49.245Z,9.48
2023-04-01T08:31:51.812Z,8.92
2023-04-01T08:32:54.570Z,8.32
2023-04-01T08:33:57.154Z,10.50
2023-04-01T08:35:00.331Z,9.78
2023-04-01T08:36:03.098Z,9.27
2023-04-01T08:37:05.663Z,12.31
2023-04-01T08:38:08.330Z,7.75
2023-04-01T08:39:10.898Z,9.26
2023-04-01T08:40:14.075Z,11.60
2023-04-01T08:41:16.851Z,10.46
2023-04-01T08:42:19.533Z,12.36
2023-04-01T08:43:22.093Z,12.47
2023-04-01T08:44:24.761Z,9.26
2023-04-01T08:45:27.869Z,11.83
2023-04-01T08:46:30.519Z,13.68
2023-04-01T08:47:33.097Z,12.47
2023-04-01T08:48:35.747Z,11.28
2023-04-01T08:49:38.415Z,11.14
2023-04-01T08:50:41.392Z,10.36
2023-04-01T08:51:44.064Z,8.62
2023-04-01T08:52:46.732Z,14.91
2023-04-01T08:53:49.412Z,13.70
2023-04-01T08:54:52.171Z,12.62
2023-04-01T08:55:54.853Z,9.94
2023-04-01T08:56:57.617Z,11.50
2023-04-01T08:58:00.296Z,11.98
2023-04-01T08:59:02.878Z,9.71
2023-04-01T09:00:05.428Z,10.56
2023-04-01T09:01:08.095Z,10.41
2023-04-01T09:02:10.818Z,12.01
2023-04-01T09:03:13.537Z,10.80
2023-04-01T09:04:16.358Z,12.10
2023-04-01T09:05:19.185Z,9.54
2023-04-01T09:06:22.266Z,11.68
2023-04-01T09:08:40.717Z,13.86
2023-04-01T09:09:44.609Z,13.17
2023-04-01T09:10:47.180Z,11.30
2023-04-01T09:11:51.546Z,11.15
2023-04-01T09:12:54.468Z,11.24
2023-04-01T09:13:58.371Z,10.72
2023-04-01T09:16:14.103Z,11.66
2023-04-01T09:17:17.115Z,11.61
2023-04-01T09:19:30.678Z,11.56
2023-04-01T09:20:33.535Z,12.18
2023-04-01T09:21:36.406Z,12.99
2023-04-01T09:25:04.870Z,12.70
2023-04-01T09:26:07.675Z,13.60
2023-04-01T09:27:10.541Z,14.29
2023-04-01T09:28:13.521Z,11.01
2023-04-01T09:29:16.430Z,10.33
2023-04-01T09:30:19.313Z,11.88
2023-04-01T09:32:38.570Z,14.73
2023-04-01T09:33:42.023Z,13.06
2023-04-01T09:34:44.912Z,12.19
2023-04-01T09:35:47.719Z,15.96
2023-04-01T09:36:50.453Z,12.29
2023-04-01T09:39:09.407Z,12.35
2023-04-01T09:40:12.077Z,15.15
2023-04-01T09:41:14.746Z,10.49
2023-04-01T09:42:17.419Z,10.62
2023-04-01T09:43:20.094Z,11.38
2023-04-01T09:44:22.863Z,12.27
2023-04-01T09:45:25.651Z,12.73
2023-04-01T09:46:28.244Z,11.08
2023-04-01T09:47:30.873Z,13.43
2023-04-01T09:49:50.239Z,10.41
2023-04-01T09:50:53.009Z,11.03
2023-04-01T09:51:55.697Z,11.38
2023-04-01T09:52:58.241Z,13.64
2023-04-01T09:54:00.923Z,11.78
2023-04-01T09:55:03.383Z,9.44
2023-04-01T09:56:06.049Z,8.88
2023-04-01T09:58:16.409Z,10.03
2023-04-01T09:59:19.078Z,10.56
2023-04-01T10:00:21.745Z,14.77
2023-04-01T10:01:24.460Z,12.08
2023-04-01T10:02:27.308Z,10.00
2023-04-01T10:04:46.152Z,11.81
2023-04-01T10:05:49.102Z,9.20
2023-04-01T10:06:52.002Z,10.94
2023-04-01T10:07:54.869Z,10.95
2023-04-01T10:08:57.648Z,9.30
2023-04-01T10:10:00.535Z,10.04
2023-04-01T10:11:03.319Z,12.33
2023-04-01T10:12:06.061Z,12.18
2023-04-01T10:13:08.934Z,8.23
2023-04-01T10:15:28.098Z,10.71
2023-04-01T10:16:31.408Z,9.78
2023-04-01T10:17:34.394Z,9.70
2023-04-01T10:18:37.242Z,11.04
2023-04-01T10:19:40.021Z,11.09
2023-04-01T10:20:42.880Z,9.27
2023-04-01T10:21:45.968Z,9.62
2023-04-01T10:22:48.740Z,10.95
2023-04-01T10:23:51.614Z,14.08
2023-04-01T10:24:54.489Z,12.17
2023-04-01T10:25:57.357Z,13.82
2023-04-01T10:27:00.237Z,11.45
2023-04-01T10:28:03.109Z,9.44
2023-04-01T10:29:05.984Z,11.65
2023-04-01T10:31:16.688Z,13.11
2023-04-01T10:32:19.586Z,12.72
2023-04-01T10:34:33.161Z,12.34
2023-04-01T10:35:36.434Z,10.64
2023-04-01T10:36:39.723Z,12.81
2023-04-01T10:37:42.602Z,14.90
2023-04-01T10:38:45.364Z,9.51
2023-04-01T10:39:48.248Z,9.87
2023-04-01T10:40:51.020Z,11.78
2023-04-01T10:41:53.890Z,11.26
2023-04-01T10:42:57.074Z,12.61
2023-04-01T10:44:01.557Z,10.12
2023-04-01T10:45:04.354Z,9.90
2023-04-01T10:46:12.832Z,11.13
2023-04-01T10:47:16.356Z,12.07
2023-04-01T10:48:19.534Z,12.54
2023-04-01T10:49:24.412Z,14.38
2023-04-01T10:50:27.233Z,12.47
2023-04-01T10:51:30.114Z,13.85
2023-04-01T10:52:32.991Z,12.98
2023-04-01T10:53:35.958Z,11.52
2023-04-01T10:54:38.753Z,10.85
2023-04-01T10:55:41.599Z,10.82
2023-04-01T10:58:00.974Z,11.43
2023-04-01T10:59:04.255Z,14.66
2023-04-01T11:00:07.036Z,13.60
2023-04-01T11:01:09.772Z,12.08
2023-04-01T11:02:12.540Z,11.38
2023-04-01T11:04:32.201Z,13.31
2023-04-01T11:06:51.214Z,10.90
2023-04-01T11:08:05.497Z,8.83
2023-04-01T11:08:58.100Z,11.11
2023-04-01T11:10:00.763Z,10.22
2023-04-01T11:11:03.426Z,11.06
2023-04-01T11:12:07.338Z,9.58
2023-04-01T11:13:11.014Z,10.34
2023-04-01T11:14:13.590Z,8.44
2023-04-01T11:16:32.410Z,11.48
2023-04-01T11:17:35.239Z,13.79
2023-04-01T11:18:37.993Z,10.56
2023-04-01T11:19:40.965Z,8.02
2023-04-01T11:20:43.754Z,9.93
2023-04-01T11:24:13.977Z,10.45
2023-04-01T11:25:16.639Z,10.95
2023-04-01T11:26:19.616Z,14.27
2023-04-01T11:28:38.465Z,10.61
2023-04-01T11:29:49.759Z,11.64
2023-04-01T11:30:45.650Z,8.60
2023-04-01T11:31:48.710Z,9.18
2023-04-01T11:32:51.561Z,10.41
2023-04-01T11:33:54.379Z,9.18
2023-04-01T11:34:57.251Z,11.22
2023-04-01T11:37:16.268Z,13.12
2023-04-01T11:38:18.985Z,10.60
2023-04-01T11:40:32.013Z,8.31
2023-04-01T11:41:34.681Z,8.64
2023-04-01T11:45:07.058Z,9.42
2023-04-01T11:46:10.016Z,10.66
2023-04-01T11:48:29.416Z,8.93
2023-04-01T11:49:37.646Z,10.20
2023-04-01T11:50:40.380Z,10.19
2023-04-01T11:51:43.249Z,9.80
2023-04-01T11:52:48.901Z,6.68
2023-04-01T11:53:51.867Z,9.00
2023-04-01T11:54:54.632Z,10.53
2023-04-01T11:55:57.713Z,11.76
2023-04-01T11:57:00.651Z,10.22
2023-04-01T11:58:03.567Z,8.86
2023-04-01T11:59:06.440Z,9.34
2023-04-01T12:01:25.399Z,9.40
2023-04-01T12:02:28.382Z,10.14
2023-04-01T12:03:31.262Z,11.55
2023-04-01T12:04:34.604Z,9.82
2023-04-01T12:05:37.410Z,7.57
2023-04-01T12:06:40.291Z,7.82
2023-04-01T12:07:44.795Z,7.37
2023-04-01T12:08:47.570Z,8.12
2023-04-01T12:09:50.460Z,8.57
2023-04-01T12:10:53.425Z,7.85
2023-04-01T12:11:56.214Z,10.36
2023-04-01T12:13:01.911Z,8.62
2023-04-01T12:14:04.612Z,9.29
2023-04-01T12:15:07.703Z,7.71
2023-04-01T12:17:18.568Z,8.67
2023-04-01T12:18:21.326Z,8.44
2023-04-01T12:19:24.210Z,7.44
2023-04-01T12:20:27.707Z,7.72
2023-04-01T12:22:46.792Z,6.83
2023-04-01T12:23:49.328Z,8.35
2023-04-01T12:24:52.005Z,9.43
2023-04-01T12:25:54.769Z,5.87
2023-04-01T12:26:57.648Z,8.11
2023-04-01T12:29:16.988Z,7.25
2023-04-01T12:30:19.578Z,7.58
2023-04-01T12:31:22.246Z,7.37
2023-04-01T12:32:25.002Z,8.22
2023-04-01T12:33:27.696Z,8.61
2023-04-01T12:34:40.949Z,7.01
2023-04-01T12:35:43.721Z,7.77
2023-04-01T12:36:47.007Z,5.18
2023-04-01T12:37:50.661Z,5.88
2023-04-01T12:38:53.527Z,8.40
2023-04-01T12:39:56.414Z,8.62
2023-04-01T12:40:59.184Z,8.79
2023-04-01T12:42:01.951Z,7.00
2023-04-01T12:43:04.839Z,9.99
2023-04-01T12:44:07.729Z,7.02
2023-04-01T12:45:10.578Z,6.28
2023-04-01T12:47:29.554Z,8.20
2023-04-01T12:48:32.199Z,9.36
2023-04-01T12:49:35.096Z,7.36
2023-04-01T12:50:37.956Z,8.42
2023-04-01T12:51:40.620Z,9.96
2023-04-01T12:52:43.494Z,7.25
2023-04-01T12:53:46.274Z,7.89
2023-04-01T12:54:49.351Z,9.81
2023-04-01T12:55:52.226Z,7.81
2023-04-01T12:56:55.021Z,9.08
2023-04-01T12:57:57.872Z,9.51
2023-04-01T12:59:00.538Z,7.39
2023-04-01T13:00:03.440Z,7.58
2023-04-01T13:01:06.322Z,8.64
2023-04-01T13:02:08.876Z,10.35
2023-04-01T13:03:11.526Z,7.92
2023-04-01T13:05:22.088Z,7.19
2023-04-01T13:06:24.954Z,8.95
2023-04-01T13:07:27.528Z,8.55
2023-04-01T13:08:30.416Z,9.53
2023-04-01T13:09:33.078Z,6.82
2023-04-01T13:11:51.934Z,8.82
2023-04-01T13:12:54.566Z,8.39
2023-04-01T13:13:57.373Z,7.39
2023-04-01T13:14:59.939Z,8.32
2023-04-01T13:16:02.651Z,6.58
2023-04-01T13:17:05.495Z,6.59
2023-04-01T13:18:08.144Z,7.34
2023-04-01T13:19:10.734Z,7.10
2023-04-01T13:20:13.406Z,7.97
2023-04-01T13:21:16.256Z,7.45
2023-04-01T13:22:19.136Z,6.93
2023-04-01T13:23:22.018Z,10.07
2023-04-01T13:24:24.895Z,9.83
2023-04-01T13:25:27.765Z,11.56
2023-04-01T13:27:46.726Z,10.74
2023-04-01T13:28:49.611Z,11.96
2023-04-01T13:29:52.476Z,11.52
2023-04-01T13:30:55.273Z,8.98
2023-04-01T13:31:58.135Z,11.02
2023-04-01T13:34:17.302Z,10.16
2023-04-01T13:35:19.978Z,9.28
2023-04-01T13:36:22.630Z,10.62
2023-04-01T13:37:25.496Z,9.48
2023-04-01T13:38:28.677Z,13.85
2023-04-01T13:39:31.860Z,12.31
2023-04-01T13:40:35.308Z,8.38
2023-04-01T13:41:38.632Z,9.05
2023-04-01T13:42:41.348Z,9.72
2023-04-01T13:43:44.075Z,10.88
2023-04-01T13:44:46.951Z,13.08
2023-04-01T13:45:49.634Z,9.35
2023-04-01T13:48:09.230Z,9.30
2023-04-01T13:49:12.576Z,8.36
2023-04-01T13:50:15.570Z,8.44
2023-04-01T13:51:18.458Z,9.46
2023-04-01T13:52:21.301Z,7.46
2023-04-01T13:53:24.085Z,9.42
2023-04-01T13:54:26.972Z,9.04
2023-04-01T13:55:29.832Z,10.76
2023-04-01T13:56:32.705Z,10.98
2023-04-01T13:57:35.406Z,9.80
2023-04-01T13:58:38.253Z,9.14
2023-04-01T13:59:41.955Z,8.65
2023-04-01T14:00:44.973Z,10.85
2023-04-01T14:01:47.805Z,11.20
2023-04-01T14:02:51.679Z,8.47
2023-04-01T14:05:11.385Z,11.20
2023-04-01T14:06:14.440Z,9.53
2023-04-01T14:07:17.016Z,10.64
2023-04-01T14:08:20.243Z,10.72
2023-04-01T14:09:22.870Z,10.87
2023-04-01T14:10:26.149Z,11.15
2023-04-01T14:11:28.932Z,11.68
2023-04-01T14:12:31.802Z,14.35
2023-04-01T14:13:36.308Z,12.14
2023-04-01T14:14:39.110Z,11.27
2023-04-01T14:15:42.366Z,11.59
2023-04-01T14:16:45.488Z,15.34
2023-04-01T14:17:48.778Z,16.08
2023-04-01T14:20:08.211Z,17.04
2023-04-01T14:21:10.970Z,16.72
2023-04-01T14:22:13.949Z,15.94
2023-04-01T14:23:16.732Z,16.94
2023-04-01T14:24:19.794Z,18.83
2023-04-01T14:25:23.014Z,17.74